sensor_id;sensor_type;location;lat;lon;timestamp;P1;durP1;ratioP1;P2;durP2;ratioP2
20865;SDS011;10593;48.398;10.698;2023-07-24T00:02:06;4.93;;;4.43;;
20865;SDS011;10593;48.398;10.698;2023-07-24T00:04:32;5.43;;;4.93;;
20865;SDS011;10593;48.398;10.698;2023-07-24T00:06:58;4.73;;;4.27;;
20865;SDS011;10593;48.398;10.698;2023-07-24T00:09:24;5.20;;;4.70;;
20865;SDS011;10593;48.398;10.698;2023-07-24T00:11:50;5.90;;;5.30;;
20865;SDS011;10593;48.398;10.698;2023-07-24T00:14:16;5.37;;;4.47;;
20865;SDS011;10593;48.398;10.698;2023-07-24T00:16:42;5.60;;;5.00;;
20865;SDS011;10593;48.398;10.698;2023-07-24T00:19:07;5.13;;;4.47;;
20865;SDS011;10593;48.398;10.698;2023-07-24T00:21:33;5.17;;;4.67;;
20865;SDS011;10593;48.398;10.698;2023-07-24T00:23:59;6.67;;;4.40;;
20865;SDS011;10593;48.398;10.698;2023-07-24T00:26:25;5.43;;;4.83;;
20865;SDS011;10593;48.398;10.698;2023-07-24T00:28:50;5.43;;;4.20;;
20865;SDS011;10593;48.398;10.698;2023-07-24T00:31:16;5.03;;;4.53;;
20865;SDS011;10593;48.398;10.698;2023-07-24T00:33:42;5.80;;;4.23;;
20865;SDS011;10593;48.398;10.698;2023-07-24T00:36:07;5.00;;;4.50;;
20865;SDS011;10593;48.398;10.698;2023-07-24T00:38:33;4.30;;;3.90;;
20865;SDS011;10593;48.398;10.698;2023-07-24T00:40:59;4.33;;;3.93;;
20865;SDS011;10593;48.398;10.698;2023-07-24T00:43:24;4.97;;;4.10;;
20865;SDS011;10593;48.398;10.698;2023-07-24T00:45:50;6.10;;;4.10;;
20865;SDS011;10593;48.398;10.698;2023-07-24T00:48:16;4.93;;;4.50;;
20865;SDS011;10593;48.398;10.698;2023-07-24T00:50:42;4.93;;;4.33;;
20865;SDS011;10593;48.398;10.698;2023-07-24T00:53:10;4.87;;;4.47;;
20865;SDS011;10593;48.398;10.698;2023-07-24T00:55:40;4.70;;;4.20;;
20865;SDS011;10593;48.398;10.698;2023-07-24T00:58:07;4.70;;;4.30;;
20865;SDS011;10593;48.398;10.698;2023-07-24T01:00:37;6.63;;;4.30;;
20865;SDS011;10593;48.398;10.698;2023-07-24T01:03:05;5.07;;;4.33;;
20865;SDS011;10593;48.398;10.698;2023-07-24T01:05:32;5.50;;;4.20;;
20865;SDS011;10593;48.398;10.698;2023-07-24T01:07:57;4.77;;;4.20;;
20865;SDS011;10593;48.398;10.698;2023-07-24T01:10:23;4.77;;;4.37;;
20865;SDS011;10593;48.398;10.698;2023-07-24T01:12:58;4.70;;;4.30;;
20865;SDS011;10593;48.398;10.698;2023-07-24T01:15:30;5.23;;;4.37;;
20865;SDS011;10593;48.398;10.698;2023-07-24T01:18:00;5.20;;;4.30;;
20865;SDS011;10593;48.398;10.698;2023-07-24T01:20:33;4.90;;;4.40;;
20865;SDS011;10593;48.398;10.698;2023-07-24T01:23:20;5.13;;;4.63;;
20865;SDS011;10593;48.398;10.698;2023-07-24T01:26:21;5.80;;;4.70;;
20865;SDS011;10593;48.398;10.698;2023-07-24T01:28:50;5.10;;;4.30;;
20865;SDS011;10593;48.398;10.698;2023-07-24T01:31:16;4.77;;;4.27;;
20865;SDS011;10593;48.398;10.698;2023-07-24T01:33:45;5.40;;;4.63;;
20865;SDS011;10593;48.398;10.698;2023-07-24T01:36:11;4.77;;;4.30;;
20865;SDS011;10593;48.398;10.698;2023-07-24T01:38:39;5.10;;;4.60;;
20865;SDS011;10593;48.398;10.698;2023-07-24T01:41:06;7.10;;;5.00;;
20865;SDS011;10593;48.398;10.698;2023-07-24T01:43:33;5.47;;;4.60;;
20865;SDS011;10593;48.398;10.698;2023-07-24T01:45:59;5.83;;;5.17;;
20865;SDS011;10593;48.398;10.698;2023-07-24T01:48:24;6.33;;;4.90;;
20865;SDS011;10593;48.398;10.698;2023-07-24T01:50:50;5.33;;;4.83;;
20865;SDS011;10593;48.398;10.698;2023-07-24T01:53:16;5.60;;;4.27;;
20865;SDS011;10593;48.398;10.698;2023-07-24T01:55:41;6.03;;;4.30;;
20865;SDS011;10593;48.398;10.698;2023-07-24T01:58:07;6.53;;;4.80;;
20865;SDS011;10593;48.398;10.698;2023-07-24T02:00:33;5.57;;;4.87;;
20865;SDS011;10593;48.398;10.698;2023-07-24T02:02:58;9.07;;;5.10;;
20865;SDS011;10593;48.398;10.698;2023-07-24T02:05:25;6.13;;;5.53;;
20865;SDS011;10593;48.398;10.698;2023-07-24T02:07:51;7.00;;;5.73;;
20865;SDS011;10593;48.398;10.698;2023-07-24T02:10:17;6.60;;;5.17;;
20865;SDS011;10593;48.398;10.698;2023-07-24T02:12:42;5.63;;;5.10;;
20865;SDS011;10593;48.398;10.698;2023-07-24T02:15:08;5.80;;;5.23;;
20865;SDS011;10593;48.398;10.698;2023-07-24T02:17:34;6.40;;;5.77;;
20865;SDS011;10593;48.398;10.698;2023-07-24T02:20:00;6.20;;;5.30;;
20865;SDS011;10593;48.398;10.698;2023-07-24T02:22:26;7.00;;;5.93;;
20865;SDS011;10593;48.398;10.698;2023-07-24T02:24:51;7.37;;;6.03;;
20865;SDS011;10593;48.398;10.698;2023-07-24T02:27:30;7.80;;;5.80;;
20865;SDS011;10593;48.398;10.698;2023-07-24T02:29:59;7.73;;;6.10;;
20865;SDS011;10593;48.398;10.698;2023-07-24T02:32:26;10.57;;;5.80;;
20865;SDS011;10593;48.398;10.698;2023-07-24T02:34:52;7.40;;;5.97;;
20865;SDS011;10593;48.398;10.698;2023-07-24T02:37:18;8.17;;;5.90;;
20865;SDS011;10593;48.398;10.698;2023-07-24T02:39:44;6.10;;;5.50;;
20865;SDS011;10593;48.398;10.698;2023-07-24T02:42:11;6.47;;;5.57;;
20865;SDS011;10593;48.398;10.698;2023-07-24T03:51:59;8.20;;;6.70;;
20865;SDS011;10593;48.398;10.698;2023-07-24T03:54:25;7.47;;;6.63;;
20865;SDS011;10593;48.398;10.698;2023-07-24T03:56:50;7.30;;;6.60;;
20865;SDS011;10593;48.398;10.698;2023-07-24T03:59:16;8.93;;;7.00;;
20865;SDS011;10593;48.398;10.698;2023-07-24T04:01:42;8.07;;;7.03;;
20865;SDS011;10593;48.398;10.698;2023-07-24T04:04:07;9.27;;;6.90;;
20865;SDS011;10593;48.398;10.698;2023-07-24T04:06:33;9.57;;;6.53;;
20865;SDS011;10593;48.398;10.698;2023-07-24T04:08:59;9.37;;;7.17;;
20865;SDS011;10593;48.398;10.698;2023-07-24T04:11:25;8.40;;;7.57;;
20865;SDS011;10593;48.398;10.698;2023-07-24T04:13:51;7.73;;;6.43;;
20865;SDS011;10593;48.398;10.698;2023-07-24T04:16:16;7.43;;;6.40;;
20865;SDS011;10593;48.398;10.698;2023-07-24T04:18:42;7.10;;;6.40;;
20865;SDS011;10593;48.398;10.698;2023-07-24T04:21:08;8.33;;;6.57;;
20865;SDS011;10593;48.398;10.698;2023-07-24T04:23:33;7.50;;;6.80;;
20865;SDS011;10593;48.398;10.698;2023-07-24T04:25:59;7.30;;;5.93;;
20865;SDS011;10593;48.398;10.698;2023-07-24T04:28:24;6.83;;;6.13;;
20865;SDS011;10593;48.398;10.698;2023-07-24T04:30:50;7.20;;;6.37;;
20865;SDS011;10593;48.398;10.698;2023-07-24T04:33:16;7.87;;;6.40;;
20865;SDS011;10593;48.398;10.698;2023-07-24T04:35:41;7.73;;;6.67;;
20865;SDS011;10593;48.398;10.698;2023-07-24T04:38:07;8.57;;;6.60;;
20865;SDS011;10593;48.398;10.698;2023-07-24T04:40:33;7.70;;;6.03;;
20865;SDS011;10593;48.398;10.698;2023-07-24T04:42:58;7.70;;;6.90;;
20865;SDS011;10593;48.398;10.698;2023-07-24T04:45:24;8.30;;;6.57;;
20865;SDS011;10593;48.398;10.698;2023-07-24T04:47:50;7.53;;;6.57;;
20865;SDS011;10593;48.398;10.698;2023-07-24T04:50:15;7.80;;;7.00;;
20865;SDS011;10593;48.398;10.698;2023-07-24T04:52:41;7.80;;;6.40;;
20865;SDS011;10593;48.398;10.698;2023-07-24T04:55:07;7.80;;;6.60;;
20865;SDS011;10593;48.398;10.698;2023-07-24T04:57:33;7.70;;;6.80;;
20865;SDS011;10593;48.398;10.698;2023-07-24T04:59:59;8.00;;;7.07;;
20865;SDS011;10593;48.398;10.698;2023-07-24T05:02:24;7.87;;;6.93;;
20865;SDS011;10593;48.398;10.698;2023-07-24T05:04:50;7.70;;;6.90;;
20865;SDS011;10593;48.398;10.698;2023-07-24T05:07:16;7.93;;;6.87;;
20865;SDS011;10593;48.398;10.698;2023-07-24T05:09:41;7.50;;;6.20;;
20865;SDS011;10593;48.398;10.698;2023-07-24T05:12:07;7.23;;;6.47;;
20865;SDS011;10593;48.398;10.698;2023-07-24T05:14:33;11.07;;;7.10;;
20865;SDS011;10593;48.398;10.698;2023-07-24T05:16:58;8.03;;;6.90;;
20865;SDS011;10593;48.398;10.698;2023-07-24T05:19:24;7.33;;;6.43;;
20865;SDS011;10593;48.398;10.698;2023-07-24T05:21:50;7.30;;;6.60;;
20865;SDS011;10593;48.398;10.698;2023-07-24T05:24:15;7.27;;;6.50;;
20865;SDS011;10593;48.398;10.698;2023-07-24T05:26:41;11.73;;;7.10;;
20865;SDS011;10593;48.398;10.698;2023-07-24T05:29:07;7.67;;;6.83;;
20865;SDS011;10593;48.398;10.698;2023-07-24T05:31:35;8.63;;;7.50;;
20865;SDS011;10593;48.398;10.698;2023-07-24T05:34:01;9.20;;;7.87;;
20865;SDS011;10593;48.398;10.698;2023-07-24T05:36:28;8.77;;;7.63;;
20865;SDS011;10593;48.398;10.698;2023-07-24T05:38:54;7.80;;;7.00;;
20865;SDS011;10593;48.398;10.698;2023-07-24T05:41:20;8.93;;;7.40;;
20865;SDS011;10593;48.398;10.698;2023-07-24T05:43:45;8.47;;;6.90;;
20865;SDS011;10593;48.398;10.698;2023-07-24T05:46:11;8.03;;;7.07;;
20865;SDS011;10593;48.398;10.698;2023-07-24T05:48:37;7.73;;;6.83;;
20865;SDS011;10593;48.398;10.698;2023-07-24T05:51:02;9.10;;;6.50;;
20865;SDS011;10593;48.398;10.698;2023-07-24T05:53:28;7.60;;;6.90;;
20865;SDS011;10593;48.398;10.698;2023-07-24T05:55:57;8.73;;;7.27;;
20865;SDS011;10593;48.398;10.698;2023-07-24T05:58:27;7.67;;;6.80;;
20865;SDS011;10593;48.398;10.698;2023-07-24T06:00:55;7.60;;;6.80;;
20865;SDS011;10593;48.398;10.698;2023-07-24T06:03:21;8.60;;;7.27;;
20865;SDS011;10593;48.398;10.698;2023-07-24T06:05:52;7.60;;;6.60;;
20865;SDS011;10593;48.398;10.698;2023-07-24T06:08:20;7.13;;;6.43;;
20865;SDS011;10593;48.398;10.698;2023-07-24T06:10:47;8.00;;;7.20;;
20865;SDS011;10593;48.398;10.698;2023-07-24T06:13:15;8.10;;;5.90;;
20865;SDS011;10593;48.398;10.698;2023-07-24T06:15:42;9.03;;;6.43;;
20865;SDS011;10593;48.398;10.698;2023-07-24T06:18:10;7.20;;;6.50;;
20865;SDS011;10593;48.398;10.698;2023-07-24T06:20:36;7.47;;;6.67;;
20865;SDS011;10593;48.398;10.698;2023-07-24T06:23:01;8.30;;;6.10;;
20865;SDS011;10593;48.398;10.698;2023-07-24T06:25:30;7.67;;;6.27;;
20865;SDS011;10593;48.398;10.698;2023-07-24T06:27:56;6.87;;;6.17;;
20865;SDS011;10593;48.398;10.698;2023-07-24T06:30:23;8.23;;;7.17;;
20865;SDS011;10593;48.398;10.698;2023-07-24T06:32:49;7.47;;;6.73;;
20865;SDS011;10593;48.398;10.698;2023-07-24T06:35:14;8.37;;;6.73;;
20865;SDS011;10593;48.398;10.698;2023-07-24T06:37:40;7.03;;;6.13;;
20865;SDS011;10593;48.398;10.698;2023-07-24T06:40:06;6.77;;;5.70;;
20865;SDS011;10593;48.398;10.698;2023-07-24T06:42:35;12.20;;;6.30;;
20865;SDS011;10593;48.398;10.698;2023-07-24T06:45:01;6.30;;;5.67;;
20865;SDS011;10593;48.398;10.698;2023-07-24T06:47:27;6.97;;;6.17;;
20865;SDS011;10593;48.398;10.698;2023-07-24T06:49:52;5.87;;;5.27;;
20865;SDS011;10593;48.398;10.698;2023-07-24T06:52:20;6.53;;;4.93;;
20865;SDS011;10593;48.398;10.698;2023-07-24T06:54:45;7.93;;;4.90;;
20865;SDS011;10593;48.398;10.698;2023-07-24T06:57:11;6.83;;;4.60;;
20865;SDS011;10593;48.398;10.698;2023-07-24T06:59:37;6.53;;;4.57;;
20865;SDS011;10593;48.398;10.698;2023-07-24T07:02:02;5.57;;;4.67;;
20865;SDS011;10593;48.398;10.698;2023-07-24T07:04:28;4.70;;;4.20;;
20865;SDS011;10593;48.398;10.698;2023-07-24T07:06:54;6.43;;;4.67;;
20865;SDS011;10593;48.398;10.698;2023-07-24T07:09:20;4.90;;;4.40;;
20865;SDS011;10593;48.398;10.698;2023-07-24T07:11:47;5.33;;;4.17;;
20865;SDS011;10593;48.398;10.698;2023-07-24T07:14:13;5.77;;;4.60;;
20865;SDS011;10593;48.398;10.698;2023-07-24T07:16:38;4.87;;;4.37;;
20865;SDS011;10593;48.398;10.698;2023-07-24T07:19:04;4.37;;;3.97;;
20865;SDS011;10593;48.398;10.698;2023-07-24T07:21:30;4.27;;;3.73;;
20865;SDS011;10593;48.398;10.698;2023-07-24T07:23:55;4.20;;;3.17;;
20865;SDS011;10593;48.398;10.698;2023-07-24T07:26:21;4.13;;;3.70;;
20865;SDS011;10593;48.398;10.698;2023-07-24T07:28:47;4.03;;;3.37;;
20865;SDS011;10593;48.398;10.698;2023-07-24T07:33:48;4.07;;;3.30;;
20865;SDS011;10593;48.398;10.698;2023-07-24T07:54:22;4.43;;;4.03;;
20865;SDS011;10593;48.398;10.698;2023-07-24T07:56:50;4.20;;;3.80;;
20865;SDS011;10593;48.398;10.698;2023-07-24T07:59:17;3.97;;;3.60;;
20865;SDS011;10593;48.398;10.698;2023-07-24T08:01:44;4.50;;;4.10;;
20865;SDS011;10593;48.398;10.698;2023-07-24T08:04:11;5.30;;;4.43;;
20865;SDS011;10593;48.398;10.698;2023-07-24T08:06:38;4.87;;;4.47;;
20865;SDS011;10593;48.398;10.698;2023-07-24T08:09:03;5.40;;;3.90;;
20865;SDS011;10593;48.398;10.698;2023-07-24T08:11:29;4.70;;;3.90;;
20865;SDS011;10593;48.398;10.698;2023-07-24T08:13:55;4.40;;;4.00;;
20865;SDS011;10593;48.398;10.698;2023-07-24T08:16:22;4.27;;;3.80;;
20865;SDS011;10593;48.398;10.698;2023-07-24T08:18:48;4.40;;;4.00;;
20865;SDS011;10593;48.398;10.698;2023-07-24T08:21:14;5.23;;;4.13;;
20865;SDS011;10593;48.398;10.698;2023-07-24T08:23:41;4.23;;;3.83;;
20865;SDS011;10593;48.398;10.698;2023-07-24T08:26:07;4.60;;;4.20;;
20865;SDS011;10593;48.398;10.698;2023-07-24T08:28:33;4.50;;;4.10;;
20865;SDS011;10593;48.398;10.698;2023-07-24T08:43:59;4.90;;;4.37;;
20865;SDS011;10593;48.398;10.698;2023-07-24T08:46:25;5.60;;;4.20;;
20865;SDS011;10593;48.398;10.698;2023-07-24T08:51:28;5.07;;;4.10;;
20865;SDS011;10593;48.398;10.698;2023-07-24T08:53:56;4.70;;;4.20;;
20865;SDS011;10593;48.398;10.698;2023-07-24T09:04:09;4.30;;;3.90;;
20865;SDS011;10593;48.398;10.698;2023-07-24T09:24:35;5.10;;;3.90;;
20865;SDS011;10593;48.398;10.698;2023-07-24T09:29:36;5.67;;;3.87;;
20865;SDS011;10593;48.398;10.698;2023-07-24T09:34:41;3.73;;;3.43;;
20865;SDS011;10593;48.398;10.698;2023-07-24T09:42:26;4.10;;;3.70;;
20865;SDS011;10593;48.398;10.698;2023-07-24T09:45:01;4.23;;;3.70;;
20865;SDS011;10593;48.398;10.698;2023-07-24T09:47:30;3.73;;;3.40;;
20865;SDS011;10593;48.398;10.698;2023-07-24T09:49:56;4.73;;;3.93;;
20865;SDS011;10593;48.398;10.698;2023-07-24T09:52:24;6.03;;;3.97;;
20865;SDS011;10593;48.398;10.698;2023-07-24T09:58:10;3.80;;;3.03;;
20865;SDS011;10593;48.398;10.698;2023-07-24T10:00:37;3.40;;;3.10;;
20865;SDS011;10593;48.398;10.698;2023-07-24T10:03:02;4.17;;;3.40;;
20865;SDS011;10593;48.398;10.698;2023-07-24T10:05:30;4.60;;;3.30;;
20865;SDS011;10593;48.398;10.698;2023-07-24T10:07:55;3.90;;;3.60;;
20865;SDS011;10593;48.398;10.698;2023-07-24T10:10:23;3.63;;;3.33;;
20865;SDS011;10593;48.398;10.698;2023-07-24T10:12:53;4.07;;;3.70;;
20865;SDS011;10593;48.398;10.698;2023-07-24T10:15:19;4.23;;;3.83;;
20865;SDS011;10593;48.398;10.698;2023-07-24T10:17:46;4.00;;;3.60;;
20865;SDS011;10593;48.398;10.698;2023-07-24T10:20:12;3.67;;;3.37;;
20865;SDS011;10593;48.398;10.698;2023-07-24T10:22:42;5.13;;;4.07;;
20865;SDS011;10593;48.398;10.698;2023-07-24T10:25:08;3.80;;;3.50;;
20865;SDS011;10593;48.398;10.698;2023-07-24T10:27:35;4.07;;;3.67;;
20865;SDS011;10593;48.398;10.698;2023-07-24T10:30:07;3.50;;;3.20;;
20865;SDS011;10593;48.398;10.698;2023-07-24T10:32:34;4.03;;;3.47;;
20865;SDS011;10593;48.398;10.698;2023-07-24T10:35:14;4.40;;;3.83;;
20865;SDS011;10593;48.398;10.698;2023-07-24T10:37:42;3.60;;;3.30;;
20865;SDS011;10593;48.398;10.698;2023-07-24T10:40:18;4.40;;;4.00;;
20865;SDS011;10593;48.398;10.698;2023-07-24T10:42:45;4.03;;;3.63;;
20865;SDS011;10593;48.398;10.698;2023-07-24T10:45:11;3.60;;;3.30;;
20865;SDS011;10593;48.398;10.698;2023-07-24T10:47:37;3.93;;;3.53;;
20865;SDS011;10593;48.398;10.698;2023-07-24T10:50:03;3.73;;;3.33;;
20865;SDS011;10593;48.398;10.698;2023-07-24T10:52:30;4.07;;;3.03;;
20865;SDS011;10593;48.398;10.698;2023-07-24T10:54:59;3.30;;;3.00;;
20865;SDS011;10593;48.398;10.698;2023-07-24T10:57:27;3.70;;;3.40;;
20865;SDS011;10593;48.398;10.698;2023-07-24T10:59:54;3.27;;;2.97;;
20865;SDS011;10593;48.398;10.698;2023-07-24T11:02:20;3.10;;;2.83;;
20865;SDS011;10593;48.398;10.698;2023-07-24T11:04:46;4.30;;;3.10;;
20865;SDS011;10593;48.398;10.698;2023-07-24T11:07:14;3.53;;;3.23;;
20865;SDS011;10593;48.398;10.698;2023-07-24T11:09:40;4.03;;;3.17;;
20865;SDS011;10593;48.398;10.698;2023-07-24T11:12:11;3.30;;;3.00;;
20865;SDS011;10593;48.398;10.698;2023-07-24T11:14:45;3.57;;;3.27;;
20865;SDS011;10593;48.398;10.698;2023-07-24T11:17:13;3.83;;;3.20;;
20865;SDS011;10593;48.398;10.698;2023-07-24T11:19:38;3.83;;;3.53;;
20865;SDS011;10593;48.398;10.698;2023-07-24T11:22:04;3.33;;;3.10;;
20865;SDS011;10593;48.398;10.698;2023-07-24T11:24:31;3.87;;;3.00;;
20865;SDS011;10593;48.398;10.698;2023-07-24T11:26:57;3.23;;;2.70;;
20865;SDS011;10593;48.398;10.698;2023-07-24T11:29:23;4.60;;;3.30;;
20865;SDS011;10593;48.398;10.698;2023-07-24T11:31:55;3.10;;;2.90;;
20865;SDS011;10593;48.398;10.698;2023-07-24T11:34:22;3.40;;;3.10;;
20865;SDS011;10593;48.398;10.698;2023-07-24T11:36:49;3.47;;;3.17;;
20865;SDS011;10593;48.398;10.698;2023-07-24T11:39:23;3.50;;;2.90;;
20865;SDS011;10593;48.398;10.698;2023-07-24T11:41:50;5.83;;;3.07;;
20865;SDS011;10593;48.398;10.698;2023-07-24T11:44:23;3.83;;;3.40;;
20865;SDS011;10593;48.398;10.698;2023-07-24T11:47:00;3.97;;;3.47;;
20865;SDS011;10593;48.398;10.698;2023-07-24T11:49:32;3.80;;;3.37;;
20865;SDS011;10593;48.398;10.698;2023-07-24T11:52:03;3.30;;;2.97;;
20865;SDS011;10593;48.398;10.698;2023-07-24T11:54:33;3.30;;;2.97;;
20865;SDS011;10593;48.398;10.698;2023-07-24T11:57:01;5.33;;;3.10;;
20865;SDS011;10593;48.398;10.698;2023-07-24T11:59:30;3.27;;;2.80;;
20865;SDS011;10593;48.398;10.698;2023-07-24T12:02:04;4.37;;;3.20;;
20865;SDS011;10593;48.398;10.698;2023-07-24T12:04:31;4.17;;;2.97;;
20865;SDS011;10593;48.398;10.698;2023-07-24T12:06:57;3.60;;;3.23;;
20865;SDS011;10593;48.398;10.698;2023-07-24T12:09:23;3.73;;;3.33;;
20865;SDS011;10593;48.398;10.698;2023-07-24T12:11:58;3.53;;;3.00;;
20865;SDS011;10593;48.398;10.698;2023-07-24T12:14:27;3.67;;;3.13;;
20865;SDS011;10593;48.398;10.698;2023-07-24T12:17:02;3.97;;;3.53;;
20865;SDS011;10593;48.398;10.698;2023-07-24T12:19:35;3.90;;;3.50;;
20865;SDS011;10593;48.398;10.698;2023-07-24T12:22:01;4.00;;;3.60;;
20865;SDS011;10593;48.398;10.698;2023-07-24T12:24:34;4.10;;;3.70;;
20865;SDS011;10593;48.398;10.698;2023-07-24T12:27:00;3.47;;;3.17;;
20865;SDS011;10593;48.398;10.698;2023-07-24T12:29:26;4.00;;;3.70;;
20865;SDS011;10593;48.398;10.698;2023-07-24T12:31:51;3.83;;;3.50;;
20865;SDS011;10593;48.398;10.698;2023-07-24T12:34:18;4.17;;;3.53;;
20865;SDS011;10593;48.398;10.698;2023-07-24T12:36:44;3.47;;;3.17;;
20865;SDS011;10593;48.398;10.698;2023-07-24T12:39:12;4.30;;;3.30;;
20865;SDS011;10593;48.398;10.698;2023-07-24T12:41:38;3.77;;;3.30;;
20865;SDS011;10593;48.398;10.698;2023-07-24T12:44:04;4.00;;;3.57;;
20865;SDS011;10593;48.398;10.698;2023-07-24T12:46:30;3.50;;;3.10;;
20865;SDS011;10593;48.398;10.698;2023-07-24T12:48:56;3.80;;;3.50;;
20865;SDS011;10593;48.398;10.698;2023-07-24T12:51:22;4.10;;;3.70;;
20865;SDS011;10593;48.398;10.698;2023-07-24T12:53:48;3.93;;;3.50;;
20865;SDS011;10593;48.398;10.698;2023-07-24T12:58:49;3.77;;;3.43;;
20865;SDS011;10593;48.398;10.698;2023-07-24T13:01:16;4.03;;;3.63;;
20865;SDS011;10593;48.398;10.698;2023-07-24T13:03:42;4.23;;;3.83;;
20865;SDS011;10593;48.398;10.698;2023-07-24T13:06:07;3.83;;;3.43;;
20865;SDS011;10593;48.398;10.698;2023-07-24T13:08:33;3.60;;;3.30;;
20865;SDS011;10593;48.398;10.698;2023-07-24T13:10:58;3.67;;;3.37;;
20865;SDS011;10593;48.398;10.698;2023-07-24T13:26:21;4.33;;;3.50;;
20865;SDS011;10593;48.398;10.698;2023-07-24T13:28:47;3.63;;;3.17;;
20865;SDS011;10593;48.398;10.698;2023-07-24T13:31:17;3.47;;;3.17;;
20865;SDS011;10593;48.398;10.698;2023-07-24T13:33:44;3.93;;;3.53;;
20865;SDS011;10593;48.398;10.698;2023-07-24T13:36:11;3.80;;;3.50;;
20865;SDS011;10593;48.398;10.698;2023-07-24T13:38:37;3.63;;;3.27;;
20865;SDS011;10593;48.398;10.698;2023-07-24T13:41:03;3.80;;;3.50;;
20865;SDS011;10593;48.398;10.698;2023-07-24T13:43:29;3.50;;;2.93;;
20865;SDS011;10593;48.398;10.698;2023-07-24T13:45:56;3.07;;;2.87;;
20865;SDS011;10593;48.398;10.698;2023-07-24T13:48:23;3.10;;;2.80;;
20865;SDS011;10593;48.398;10.698;2023-07-24T13:50:49;4.37;;;2.90;;
20865;SDS011;10593;48.398;10.698;2023-07-24T13:53:15;3.10;;;2.90;;
20865;SDS011;10593;48.398;10.698;2023-07-24T13:55:41;3.03;;;2.83;;
20865;SDS011;10593;48.398;10.698;2023-07-24T13:58:08;3.17;;;2.97;;
20865;SDS011;10593;48.398;10.698;2023-07-24T14:00:33;2.83;;;2.63;;
20865;SDS011;10593;48.398;10.698;2023-07-24T14:02:59;4.87;;;2.70;;
20865;SDS011;10593;48.398;10.698;2023-07-24T14:05:25;3.80;;;3.40;;
20865;SDS011;10593;48.398;10.698;2023-07-24T14:07:51;3.23;;;2.93;;
20865;SDS011;10593;48.398;10.698;2023-07-24T14:10:16;2.53;;;2.33;;
20865;SDS011;10593;48.398;10.698;2023-07-24T14:12:42;2.23;;;2.07;;
20865;SDS011;10593;48.398;10.698;2023-07-24T14:15:08;2.27;;;2.10;;
20865;SDS011;10593;48.398;10.698;2023-07-24T14:17:34;2.40;;;2.20;;
20865;SDS011;10593;48.398;10.698;2023-07-24T14:20:00;2.53;;;2.33;;
20865;SDS011;10593;48.398;10.698;2023-07-24T14:22:27;2.30;;;2.10;;
20865;SDS011;10593;48.398;10.698;2023-07-24T14:24:53;2.53;;;2.33;;
20865;SDS011;10593;48.398;10.698;2023-07-24T14:27:19;2.37;;;2.17;;
20865;SDS011;10593;48.398;10.698;2023-07-24T14:29:45;2.73;;;2.53;;
20865;SDS011;10593;48.398;10.698;2023-07-24T14:32:10;2.50;;;2.30;;
20865;SDS011;10593;48.398;10.698;2023-07-24T14:34:36;3.67;;;2.50;;
20865;SDS011;10593;48.398;10.698;2023-07-24T14:37:02;2.43;;;2.33;;
20865;SDS011;10593;48.398;10.698;2023-07-24T14:39:28;2.00;;;1.80;;
20865;SDS011;10593;48.398;10.698;2023-07-24T14:41:53;2.37;;;2.00;;
20865;SDS011;10593;48.398;10.698;2023-07-24T14:44:20;2.80;;;2.03;;
20865;SDS011;10593;48.398;10.698;2023-07-24T14:46:47;2.43;;;2.23;;
20865;SDS011;10593;48.398;10.698;2023-07-24T14:51:48;2.27;;;2.07;;
20865;SDS011;10593;48.398;10.698;2023-07-24T14:54:14;2.20;;;2.00;;
20865;SDS011;10593;48.398;10.698;2023-07-24T14:56:39;2.97;;;2.43;;
20865;SDS011;10593;48.398;10.698;2023-07-24T14:59:05;1.83;;;1.73;;
20865;SDS011;10593;48.398;10.698;2023-07-24T15:01:30;2.17;;;2.00;;
20865;SDS011;10593;48.398;10.698;2023-07-24T15:03:56;2.23;;;2.07;;
20865;SDS011;10593;48.398;10.698;2023-07-24T15:06:23;1.90;;;1.80;;
20865;SDS011;10593;48.398;10.698;2023-07-24T15:08:49;2.90;;;1.90;;
20865;SDS011;10593;48.398;10.698;2023-07-24T15:11:22;2.03;;;1.93;;
20865;SDS011;10593;48.398;10.698;2023-07-24T15:13:51;1.87;;;1.77;;
20865;SDS011;10593;48.398;10.698;2023-07-24T15:16:17;3.73;;;1.90;;
20865;SDS011;10593;48.398;10.698;2023-07-24T15:18:42;2.53;;;2.00;;
20865;SDS011;10593;48.398;10.698;2023-07-24T15:21:09;1.87;;;1.63;;
20865;SDS011;10593;48.398;10.698;2023-07-24T15:23:35;3.93;;;2.00;;
20865;SDS011;10593;48.398;10.698;2023-07-24T15:26:01;1.90;;;1.80;;
20865;SDS011;10593;48.398;10.698;2023-07-24T15:28:27;1.60;;;1.50;;
20865;SDS011;10593;48.398;10.698;2023-07-24T15:30:53;2.00;;;1.90;;
20865;SDS011;10593;48.398;10.698;2023-07-24T15:33:19;2.47;;;1.70;;
20865;SDS011;10593;48.398;10.698;2023-07-24T15:35:45;1.80;;;1.70;;
20865;SDS011;10593;48.398;10.698;2023-07-24T15:38:11;1.70;;;1.60;;
20865;SDS011;10593;48.398;10.698;2023-07-24T15:40:38;1.77;;;1.67;;
20865;SDS011;10593;48.398;10.698;2023-07-24T15:43:07;1.70;;;1.60;;
20865;SDS011;10593;48.398;10.698;2023-07-24T15:45:33;2.00;;;1.80;;
20865;SDS011;10593;48.398;10.698;2023-07-24T15:47:58;1.80;;;1.70;;
20865;SDS011;10593;48.398;10.698;2023-07-24T17:02:29;2.27;;;2.07;;
20865;SDS011;10593;48.398;10.698;2023-07-24T17:05:01;2.23;;;2.03;;
20865;SDS011;10593;48.398;10.698;2023-07-24T17:07:28;2.00;;;1.90;;
20865;SDS011;10593;48.398;10.698;2023-07-24T17:09:53;2.03;;;1.83;;
20865;SDS011;10593;48.398;10.698;2023-07-24T17:12:19;4.67;;;4.27;;
20865;SDS011;10593;48.398;10.698;2023-07-24T17:14:45;14.33;;;12.33;;
20865;SDS011;10593;48.398;10.698;2023-07-24T17:17:10;11.83;;;10.60;;
20865;SDS011;10593;48.398;10.698;2023-07-24T17:19:36;4.10;;;3.30;;
20865;SDS011;10593;48.398;10.698;2023-07-24T17:22:02;2.70;;;2.50;;
20865;SDS011;10593;48.398;10.698;2023-07-24T17:24:28;3.00;;;2.17;;
20865;SDS011;10593;48.398;10.698;2023-07-24T17:26:53;2.37;;;1.90;;
20865;SDS011;10593;48.398;10.698;2023-07-24T17:29:20;2.10;;;2.00;;
20865;SDS011;10593;48.398;10.698;2023-07-24T17:31:46;1.83;;;1.70;;
20865;SDS011;10593;48.398;10.698;2023-07-24T17:34:12;2.83;;;1.90;;
20865;SDS011;10593;48.398;10.698;2023-07-24T17:36:37;1.90;;;1.80;;
20865;SDS011;10593;48.398;10.698;2023-07-24T17:39:03;2.40;;;2.20;;
20865;SDS011;10593;48.398;10.698;2023-07-24T17:41:29;1.83;;;1.73;;
20865;SDS011;10593;48.398;10.698;2023-07-24T17:43:54;1.93;;;1.70;;
20865;SDS011;10593;48.398;10.698;2023-07-24T17:46:20;2.00;;;1.80;;
20865;SDS011;10593;48.398;10.698;2023-07-24T17:48:46;2.10;;;2.00;;
20865;SDS011;10593;48.398;10.698;2023-07-24T17:51:12;2.20;;;2.10;;
20865;SDS011;10593;48.398;10.698;2023-07-24T17:53:38;2.60;;;1.90;;
20865;SDS011;10593;48.398;10.698;2023-07-24T17:56:04;2.30;;;1.87;;
20865;SDS011;10593;48.398;10.698;2023-07-24T17:58:29;1.80;;;1.67;;
20865;SDS011;10593;48.398;10.698;2023-07-24T18:00:55;1.80;;;1.70;;
20865;SDS011;10593;48.398;10.698;2023-07-24T18:03:21;2.20;;;2.00;;
20865;SDS011;10593;48.398;10.698;2023-07-24T18:05:47;1.83;;;1.70;;
20865;SDS011;10593;48.398;10.698;2023-07-24T18:08:14;1.97;;;1.87;;
20865;SDS011;10593;48.398;10.698;2023-07-24T18:10:40;1.80;;;1.70;;
20865;SDS011;10593;48.398;10.698;2023-07-24T18:13:05;2.20;;;2.10;;
20865;SDS011;10593;48.398;10.698;2023-07-24T18:15:31;2.13;;;2.03;;
20865;SDS011;10593;48.398;10.698;2023-07-24T18:17:56;2.00;;;1.90;;
20865;SDS011;10593;48.398;10.698;2023-07-24T18:20:22;2.30;;;2.10;;
20865;SDS011;10593;48.398;10.698;2023-07-24T18:22:48;1.93;;;1.83;;
20865;SDS011;10593;48.398;10.698;2023-07-24T18:25:14;1.57;;;1.47;;